Ivy, Iowa
Current Conditions -  °F | °C
As of 5:35 PM on Sunday 21 Dec 2014 (Local Time) from KIKV Reporting Station
Overcast Overcast  
Wind Chill: 34°   Ceiling: 1300
Heat Index: 41°   Visibility: 10mi
Dew Point: 39°   Wind: 12mph
Humidity: 93%   Direction: 170°S
Pressure: 29.81"   Gusts: NA
Location:  41.6405°N, 93.4586°W
Report Text: KIKV 212335Z AUTO 17010KT 10SM OVC013 05/04 A2981 RMK AO2
Loading
Personal Weather Stations






























Interactive Weather Map New forecast layout! Learn more

10-Day Weather Forecast

Advertisements
Track Severe Weather on mobile